sensor_id;sensor_type;location;lat;lon;timestamp;P1;durP1;ratioP1;P2;durP2;ratioP2
466;SDS011;72290;48.808;9.222;2024-02-04T06:02:07;0.90;;;0.80;;
466;SDS011;72290;48.808;9.222;2024-02-04T06:04:33;0.70;;;0.60;;
466;SDS011;72290;48.808;9.222;2024-02-04T06:07:01;0.80;;;0.70;;
466;SDS011;72290;48.808;9.222;2024-02-04T06:09:27;0.80;;;0.70;;
466;SDS011;72290;48.808;9.222;2024-02-04T06:11:53;0.70;;;0.63;;
466;SDS011;72290;48.808;9.222;2024-02-04T06:14:19;0.83;;;0.73;;
466;SDS011;72290;48.808;9.222;2024-02-04T06:16:45;0.73;;;0.70;;
466;SDS011;72290;48.808;9.222;2024-02-04T06:19:11;0.70;;;0.60;;
466;SDS011;72290;48.808;9.222;2024-02-04T06:21:38;0.70;;;0.60;;
466;SDS011;72290;48.808;9.222;2024-02-04T06:24:04;0.80;;;0.70;;
466;SDS011;72290;48.808;9.222;2024-02-04T06:26:30;1.07;;;0.80;;
466;SDS011;72290;48.808;9.222;2024-02-04T06:28:56;1.23;;;0.80;;
466;SDS011;72290;48.808;9.222;2024-02-04T06:31:22;0.90;;;0.80;;
466;SDS011;72290;48.808;9.222;2024-02-04T06:33:48;0.97;;;0.77;;
466;SDS011;72290;48.808;9.222;2024-02-04T06:36:14;0.80;;;0.80;;
466;SDS011;72290;48.808;9.222;2024-02-04T06:38:40;1.27;;;1.03;;
466;SDS011;72290;48.808;9.222;2024-02-04T06:41:06;0.90;;;0.80;;
466;SDS011;72290;48.808;9.222;2024-02-04T06:43:32;0.93;;;0.87;;
466;SDS011;72290;48.808;9.222;2024-02-04T06:45:58;0.83;;;0.73;;
466;SDS011;72290;48.808;9.222;2024-02-04T06:48:24;0.77;;;0.73;;
466;SDS011;72290;48.808;9.222;2024-02-04T06:50:50;2.10;;;0.93;;
466;SDS011;72290;48.808;9.222;2024-02-04T06:53:16;0.80;;;0.70;;
466;SDS011;72290;48.808;9.222;2024-02-04T06:55:42;0.73;;;0.70;;
466;SDS011;72290;48.808;9.222;2024-02-04T06:58:08;0.93;;;0.77;;
466;SDS011;72290;48.808;9.222;2024-02-04T07:00:34;1.37;;;0.93;;
466;SDS011;72290;48.808;9.222;2024-02-04T07:02:59;0.90;;;0.80;;
466;SDS011;72290;48.808;9.222;2024-02-04T07:05:25;0.90;;;0.80;;
466;SDS011;72290;48.808;9.222;2024-02-04T07:07:51;0.83;;;0.73;;
466;SDS011;72290;48.808;9.222;2024-02-04T07:10:17;1.00;;;0.90;;
466;SDS011;72290;48.808;9.222;2024-02-04T07:12:44;1.00;;;0.77;;
466;SDS011;72290;48.808;9.222;2024-02-04T07:15:10;1.13;;;0.90;;
466;SDS011;72290;48.808;9.222;2024-02-04T07:17:36;1.17;;;1.10;;
466;SDS011;72290;48.808;9.222;2024-02-04T07:20:02;1.67;;;1.03;;
466;SDS011;72290;48.808;9.222;2024-02-04T07:22:28;0.80;;;0.70;;
466;SDS011;72290;48.808;9.222;2024-02-04T07:24:54;1.77;;;1.00;;
466;SDS011;72290;48.808;9.222;2024-02-04T07:27:20;1.10;;;1.00;;
466;SDS011;72290;48.808;9.222;2024-02-04T07:29:46;1.03;;;0.90;;
466;SDS011;72290;48.808;9.222;2024-02-04T07:32:12;0.90;;;0.80;;
466;SDS011;72290;48.808;9.222;2024-02-04T07:34:38;1.20;;;0.90;;
466;SDS011;72290;48.808;9.222;2024-02-04T07:37:04;1.07;;;1.03;;
466;SDS011;72290;48.808;9.222;2024-02-04T07:39:30;6.17;;;2.90;;
466;SDS011;72290;48.808;9.222;2024-02-04T07:41:56;9.13;;;2.00;;
466;SDS011;72290;48.808;9.222;2024-02-04T07:44:28;1.30;;;1.20;;
466;SDS011;72290;48.808;9.222;2024-02-04T07:46:55;0.90;;;0.80;;
466;SDS011;72290;48.808;9.222;2024-02-04T07:49:21;1.03;;;0.93;;
466;SDS011;72290;48.808;9.222;2024-02-04T07:51:47;1.07;;;0.70;;
466;SDS011;72290;48.808;9.222;2024-02-04T07:54:13;1.20;;;1.10;;
466;SDS011;72290;48.808;9.222;2024-02-04T07:56:39;1.97;;;1.30;;
466;SDS011;72290;48.808;9.222;2024-02-04T07:59:05;2.20;;;1.10;;
466;SDS011;72290;48.808;9.222;2024-02-04T08:01:31;1.23;;;1.13;;
466;SDS011;72290;48.808;9.222;2024-02-04T08:03:57;0.93;;;0.80;;
466;SDS011;72290;48.808;9.222;2024-02-04T08:06:23;2.93;;;1.10;;
466;SDS011;72290;48.808;9.222;2024-02-04T08:08:49;1.37;;;1.03;;
466;SDS011;72290;48.808;9.222;2024-02-04T08:11:18;0.97;;;0.90;;
466;SDS011;72290;48.808;9.222;2024-02-04T08:13:44;0.80;;;0.70;;
466;SDS011;72290;48.808;9.222;2024-02-04T08:16:10;1.13;;;1.10;;
466;SDS011;72290;48.808;9.222;2024-02-04T08:18:36;0.93;;;0.83;;
466;SDS011;72290;48.808;9.222;2024-02-04T08:21:02;1.70;;;0.97;;
466;SDS011;72290;48.808;9.222;2024-02-04T08:23:28;0.93;;;0.83;;
466;SDS011;72290;48.808;9.222;2024-02-04T08:25:54;1.97;;;0.83;;
466;SDS011;72290;48.808;9.222;2024-02-04T08:28:21;1.60;;;1.00;;
466;SDS011;72290;48.808;9.222;2024-02-04T08:30:48;1.30;;;0.90;;
466;SDS011;72290;48.808;9.222;2024-02-04T08:33:14;1.00;;;0.90;;
466;SDS011;72290;48.808;9.222;2024-02-04T08:35:40;1.90;;;1.00;;
466;SDS011;72290;48.808;9.222;2024-02-04T08:38:06;1.43;;;0.80;;
466;SDS011;72290;48.808;9.222;2024-02-04T08:40:32;1.00;;;0.90;;
466;SDS011;72290;48.808;9.222;2024-02-04T08:42:58;3.70;;;0.90;;
466;SDS011;72290;48.808;9.222;2024-02-04T08:45:24;2.53;;;1.00;;
466;SDS011;72290;48.808;9.222;2024-02-04T08:47:50;1.07;;;0.93;;
466;SDS011;72290;48.808;9.222;2024-02-04T08:50:16;1.00;;;0.90;;
466;SDS011;72290;48.808;9.222;2024-02-04T08:52:42;1.03;;;1.00;;
466;SDS011;72290;48.808;9.222;2024-02-04T08:55:08;1.20;;;0.80;;
466;SDS011;72290;48.808;9.222;2024-02-04T08:57:34;3.67;;;1.87;;
466;SDS011;72290;48.808;9.222;2024-02-04T09:00:00;4.63;;;2.10;;
466;SDS011;72290;48.808;9.222;2024-02-04T09:02:26;4.53;;;0.97;;
466;SDS011;72290;48.808;9.222;2024-02-04T09:04:52;1.40;;;1.07;;
466;SDS011;72290;48.808;9.222;2024-02-04T09:07:19;1.57;;;0.90;;
466;SDS011;72290;48.808;9.222;2024-02-04T09:09:45;1.00;;;1.00;;
466;SDS011;72290;48.808;9.222;2024-02-04T09:12:11;0.93;;;0.83;;
466;SDS011;72290;48.808;9.222;2024-02-04T09:14:37;1.00;;;0.90;;
466;SDS011;72290;48.808;9.222;2024-02-04T09:17:03;1.60;;;1.10;;
466;SDS011;72290;48.808;9.222;2024-02-04T09:19:30;1.50;;;1.23;;
466;SDS011;72290;48.808;9.222;2024-02-04T09:21:58;1.20;;;1.10;;
466;SDS011;72290;48.808;9.222;2024-02-04T09:24:26;0.90;;;0.80;;
466;SDS011;72290;48.808;9.222;2024-02-04T09:26:52;1.17;;;1.07;;
466;SDS011;72290;48.808;9.222;2024-02-04T09:29:18;1.20;;;1.10;;
466;SDS011;72290;48.808;9.222;2024-02-04T09:31:44;1.73;;;1.20;;
466;SDS011;72290;48.808;9.222;2024-02-04T09:34:10;4.20;;;1.50;;
466;SDS011;72290;48.808;9.222;2024-02-04T09:36:36;36.23;;;11.43;;
466;SDS011;72290;48.808;9.222;2024-02-04T09:39:02;42.60;;;19.00;;
466;SDS011;72290;48.808;9.222;2024-02-04T09:41:28;15.87;;;6.17;;
466;SDS011;72290;48.808;9.222;2024-02-04T09:43:54;7.63;;;3.30;;
466;SDS011;72290;48.808;9.222;2024-02-04T09:46:21;4.30;;;2.63;;
466;SDS011;72290;48.808;9.222;2024-02-04T09:48:47;9.43;;;2.20;;
466;SDS011;72290;48.808;9.222;2024-02-04T09:51:14;2.07;;;1.33;;
466;SDS011;72290;48.808;9.222;2024-02-04T09:53:43;3.93;;;2.07;;
466;SDS011;72290;48.808;9.222;2024-02-04T09:56:09;1.43;;;1.10;;
466;SDS011;72290;48.808;9.222;2024-02-04T09:58:36;9.00;;;4.23;;
466;SDS011;72290;48.808;9.222;2024-02-04T10:01:03;1.43;;;1.00;;
466;SDS011;72290;48.808;9.222;2024-02-04T10:03:30;1.83;;;0.97;;
466;SDS011;72290;48.808;9.222;2024-02-04T10:05:56;0.87;;;0.70;;
466;SDS011;72290;48.808;9.222;2024-02-04T10:08:22;4.50;;;1.40;;
466;SDS011;72290;48.808;9.222;2024-02-04T10:10:48;3.00;;;1.83;;
466;SDS011;72290;48.808;9.222;2024-02-04T10:13:14;1.63;;;0.93;;
466;SDS011;72290;48.808;9.222;2024-02-04T10:15:40;1.63;;;1.53;;
466;SDS011;72290;48.808;9.222;2024-02-04T10:18:07;2.93;;;1.23;;
466;SDS011;72290;48.808;9.222;2024-02-04T10:20:33;1.20;;;0.90;;
466;SDS011;72290;48.808;9.222;2024-02-04T10:22:59;3.03;;;1.20;;
466;SDS011;72290;48.808;9.222;2024-02-04T10:25:25;0.97;;;0.70;;
466;SDS011;72290;48.808;9.222;2024-02-04T10:27:52;0.80;;;0.70;;
466;SDS011;72290;48.808;9.222;2024-02-04T10:30:18;1.93;;;1.20;;
466;SDS011;72290;48.808;9.222;2024-02-04T10:32:45;0.80;;;0.70;;
466;SDS011;72290;48.808;9.222;2024-02-04T10:35:12;2.70;;;1.73;;
466;SDS011;72290;48.808;9.222;2024-02-04T10:37:38;1.57;;;0.80;;
466;SDS011;72290;48.808;9.222;2024-02-04T10:40:04;0.90;;;0.80;;
466;SDS011;72290;48.808;9.222;2024-02-04T10:42:30;0.80;;;0.70;;
466;SDS011;72290;48.808;9.222;2024-02-04T10:44:57;2.47;;;1.63;;
466;SDS011;72290;48.808;9.222;2024-02-04T10:47:29;1.03;;;0.93;;
466;SDS011;72290;48.808;9.222;2024-02-04T10:49:58;2.27;;;1.10;;
466;SDS011;72290;48.808;9.222;2024-02-04T10:52:26;0.90;;;0.80;;
466;SDS011;72290;48.808;9.222;2024-02-04T10:54:53;1.20;;;0.90;;
466;SDS011;72290;48.808;9.222;2024-02-04T10:57:22;0.77;;;0.70;;
466;SDS011;72290;48.808;9.222;2024-02-04T10:59:48;0.83;;;0.73;;
466;SDS011;72290;48.808;9.222;2024-02-04T11:02:15;2.00;;;0.70;;
466;SDS011;72290;48.808;9.222;2024-02-04T11:04:42;0.80;;;0.70;;
466;SDS011;72290;48.808;9.222;2024-02-04T11:07:09;0.80;;;0.77;;
466;SDS011;72290;48.808;9.222;2024-02-04T11:09:36;0.93;;;0.70;;
466;SDS011;72290;48.808;9.222;2024-02-04T11:12:02;0.67;;;0.60;;
466;SDS011;72290;48.808;9.222;2024-02-04T11:14:30;0.63;;;0.60;;
466;SDS011;72290;48.808;9.222;2024-02-04T11:25:16;1.83;;;0.90;;
466;SDS011;72290;48.808;9.222;2024-02-04T11:27:43;0.73;;;0.70;;
466;SDS011;72290;48.808;9.222;2024-02-04T11:30:09;2.73;;;0.80;;
466;SDS011;72290;48.808;9.222;2024-02-04T11:32:36;1.90;;;1.00;;
466;SDS011;72290;48.808;9.222;2024-02-04T11:35:02;1.17;;;1.00;;
466;SDS011;72290;48.808;9.222;2024-02-04T11:37:32;1.90;;;0.60;;
466;SDS011;72290;48.808;9.222;2024-02-04T11:39:58;0.80;;;0.70;;
466;SDS011;72290;48.808;9.222;2024-02-04T11:42:24;0.90;;;0.70;;
466;SDS011;72290;48.808;9.222;2024-02-04T11:45:05;0.63;;;0.57;;
466;SDS011;72290;48.808;9.222;2024-02-04T11:47:33;0.73;;;0.63;;
466;SDS011;72290;48.808;9.222;2024-02-04T11:50:00;0.70;;;0.60;;
466;SDS011;72290;48.808;9.222;2024-02-04T11:52:26;2.20;;;0.83;;
466;SDS011;72290;48.808;9.222;2024-02-04T11:54:53;0.70;;;0.60;;
466;SDS011;72290;48.808;9.222;2024-02-04T11:57:19;1.00;;;0.90;;
466;SDS011;72290;48.808;9.222;2024-02-04T11:59:45;1.07;;;0.70;;
466;SDS011;72290;48.808;9.222;2024-02-04T12:02:12;0.93;;;0.77;;
466;SDS011;72290;48.808;9.222;2024-02-04T12:04:39;0.80;;;0.60;;
466;SDS011;72290;48.808;9.222;2024-02-04T12:07:05;0.73;;;0.67;;
466;SDS011;72290;48.808;9.222;2024-02-04T12:09:31;0.93;;;0.80;;
466;SDS011;72290;48.808;9.222;2024-02-04T12:11:57;0.90;;;0.80;;
466;SDS011;72290;48.808;9.222;2024-02-04T12:14:23;1.90;;;0.87;;
466;SDS011;72290;48.808;9.222;2024-02-04T12:16:49;0.77;;;0.67;;
466;SDS011;72290;48.808;9.222;2024-02-04T12:19:15;0.83;;;0.73;;
466;SDS011;72290;48.808;9.222;2024-02-04T12:21:42;0.70;;;0.60;;
466;SDS011;72290;48.808;9.222;2024-02-04T12:24:08;0.73;;;0.67;;
466;SDS011;72290;48.808;9.222;2024-02-04T12:26:34;0.77;;;0.70;;
466;SDS011;72290;48.808;9.222;2024-02-04T12:29:01;0.93;;;0.77;;
466;SDS011;72290;48.808;9.222;2024-02-04T12:31:28;0.67;;;0.57;;
466;SDS011;72290;48.808;9.222;2024-02-04T12:33:57;1.17;;;0.63;;
466;SDS011;72290;48.808;9.222;2024-02-04T12:36:25;1.43;;;0.60;;
466;SDS011;72290;48.808;9.222;2024-02-04T12:38:54;2.57;;;0.93;;
466;SDS011;72290;48.808;9.222;2024-02-04T12:41:21;0.90;;;0.80;;
466;SDS011;72290;48.808;9.222;2024-02-04T12:43:53;3.33;;;1.03;;
466;SDS011;72290;48.808;9.222;2024-02-04T12:46:19;2.40;;;0.80;;
466;SDS011;72290;48.808;9.222;2024-02-04T12:48:53;0.83;;;0.73;;
466;SDS011;72290;48.808;9.222;2024-02-04T12:51:29;0.67;;;0.50;;
466;SDS011;72290;48.808;9.222;2024-02-04T12:54:05;0.73;;;0.67;;
466;SDS011;72290;48.808;9.222;2024-02-04T12:59:07;2.57;;;0.70;;
466;SDS011;72290;48.808;9.222;2024-02-04T13:01:33;1.17;;;1.00;;
466;SDS011;72290;48.808;9.222;2024-02-04T13:04:00;2.10;;;0.80;;
466;SDS011;72290;48.808;9.222;2024-02-04T13:06:26;0.80;;;0.70;;
466;SDS011;72290;48.808;9.222;2024-02-04T13:08:55;0.87;;;0.80;;
466;SDS011;72290;48.808;9.222;2024-02-04T13:11:24;0.90;;;0.80;;
466;SDS011;72290;48.808;9.222;2024-02-04T13:13:50;1.90;;;0.90;;
466;SDS011;72290;48.808;9.222;2024-02-04T13:16:16;0.87;;;0.83;;
466;SDS011;72290;48.808;9.222;2024-02-04T13:18:44;0.80;;;0.70;;
466;SDS011;72290;48.808;9.222;2024-02-04T13:21:10;0.87;;;0.77;;
466;SDS011;72290;48.808;9.222;2024-02-04T13:23:36;0.80;;;0.80;;
466;SDS011;72290;48.808;9.222;2024-02-04T13:26:02;0.70;;;0.70;;
466;SDS011;72290;48.808;9.222;2024-02-04T13:28:28;0.60;;;0.60;;
466;SDS011;72290;48.808;9.222;2024-02-04T13:30:54;0.97;;;0.70;;
466;SDS011;72290;48.808;9.222;2024-02-04T13:33:20;2.10;;;1.30;;
466;SDS011;72290;48.808;9.222;2024-02-04T13:35:45;2.63;;;1.37;;
466;SDS011;72290;48.808;9.222;2024-02-04T13:38:13;0.73;;;0.63;;
466;SDS011;72290;48.808;9.222;2024-02-04T13:40:39;1.27;;;0.60;;
466;SDS011;72290;48.808;9.222;2024-02-04T13:43:05;3.07;;;0.70;;
466;SDS011;72290;48.808;9.222;2024-02-04T13:45:31;1.03;;;0.80;;
466;SDS011;72290;48.808;9.222;2024-02-04T13:47:57;0.80;;;0.70;;
466;SDS011;72290;48.808;9.222;2024-02-04T13:50:23;2.83;;;0.60;;
466;SDS011;72290;48.808;9.222;2024-02-04T13:52:49;0.90;;;0.80;;
466;SDS011;72290;48.808;9.222;2024-02-04T13:55:16;3.37;;;1.00;;
466;SDS011;72290;48.808;9.222;2024-02-04T13:57:42;1.50;;;0.77;;
466;SDS011;72290;48.808;9.222;2024-02-04T14:00:08;1.10;;;0.80;;
466;SDS011;72290;48.808;9.222;2024-02-04T14:02:34;3.63;;;1.10;;
466;SDS011;72290;48.808;9.222;2024-02-04T14:05:00;0.83;;;0.80;;
466;SDS011;72290;48.808;9.222;2024-02-04T14:07:26;1.77;;;1.10;;
466;SDS011;72290;48.808;9.222;2024-02-04T14:09:52;1.03;;;0.90;;
466;SDS011;72290;48.808;9.222;2024-02-04T14:12:18;1.83;;;0.90;;
466;SDS011;72290;48.808;9.222;2024-02-04T14:14:44;1.00;;;0.90;;
466;SDS011;72290;48.808;9.222;2024-02-04T14:17:10;1.20;;;1.00;;
466;SDS011;72290;48.808;9.222;2024-02-04T14:19:36;1.13;;;1.10;;
466;SDS011;72290;48.808;9.222;2024-02-04T14:22:02;2.40;;;0.90;;
466;SDS011;72290;48.808;9.222;2024-02-04T14:24:28;3.77;;;1.10;;
466;SDS011;72290;48.808;9.222;2024-02-04T14:26:57;1.90;;;1.13;;
466;SDS011;72290;48.808;9.222;2024-02-04T14:29:23;1.97;;;1.70;;
466;SDS011;72290;48.808;9.222;2024-02-04T14:31:51;3.00;;;1.90;;
466;SDS011;72290;48.808;9.222;2024-02-04T14:34:17;1.10;;;1.00;;
466;SDS011;72290;48.808;9.222;2024-02-04T14:36:43;3.83;;;0.90;;
466;SDS011;72290;48.808;9.222;2024-02-04T14:39:08;1.03;;;0.97;;
466;SDS011;72290;48.808;9.222;2024-02-04T14:41:35;1.40;;;1.10;;
466;SDS011;72290;48.808;9.222;2024-02-04T14:44:01;2.30;;;1.27;;
466;SDS011;72290;48.808;9.222;2024-02-04T14:46:27;1.37;;;1.30;;
466;SDS011;72290;48.808;9.222;2024-02-04T14:48:53;5.37;;;1.40;;
466;SDS011;72290;48.808;9.222;2024-02-04T14:51:19;3.13;;;1.40;;
466;SDS011;72290;48.808;9.222;2024-02-04T14:53:45;1.47;;;1.27;;
466;SDS011;72290;48.808;9.222;2024-02-04T14:56:11;4.30;;;1.10;;
466;SDS011;72290;48.808;9.222;2024-02-04T14:58:37;1.60;;;1.30;;
466;SDS011;72290;48.808;9.222;2024-02-04T15:01:03;1.27;;;1.20;;
466;SDS011;72290;48.808;9.222;2024-02-04T15:03:29;2.23;;;1.93;;
466;SDS011;72290;48.808;9.222;2024-02-04T15:05:55;1.00;;;1.00;;
466;SDS011;72290;48.808;9.222;2024-02-04T15:08:21;2.07;;;1.10;;
466;SDS011;72290;48.808;9.222;2024-02-04T15:10:48;1.03;;;1.03;;
466;SDS011;72290;48.808;9.222;2024-02-04T15:13:14;1.17;;;1.10;;
466;SDS011;72290;48.808;9.222;2024-02-04T15:15:40;1.77;;;1.20;;
466;SDS011;72290;48.808;9.222;2024-02-04T15:18:06;0.90;;;0.80;;
466;SDS011;72290;48.808;9.222;2024-02-04T15:20:32;0.90;;;0.87;;
466;SDS011;72290;48.808;9.222;2024-02-04T15:22:59;1.70;;;1.33;;
466;SDS011;72290;48.808;9.222;2024-02-04T15:25:25;2.37;;;1.03;;
466;SDS011;72290;48.808;9.222;2024-02-04T15:27:52;1.03;;;1.00;;
466;SDS011;72290;48.808;9.222;2024-02-04T15:30:18;1.83;;;1.37;;
466;SDS011;72290;48.808;9.222;2024-02-04T15:32:44;2.23;;;1.40;;
466;SDS011;72290;48.808;9.222;2024-02-04T15:35:10;2.87;;;1.17;;
466;SDS011;72290;48.808;9.222;2024-02-04T15:37:37;0.80;;;0.77;;
466;SDS011;72290;48.808;9.222;2024-02-04T15:40:03;1.80;;;1.37;;
466;SDS011;72290;48.808;9.222;2024-02-04T15:42:30;3.00;;;1.10;;
466;SDS011;72290;48.808;9.222;2024-02-04T15:44:56;1.53;;;1.23;;
466;SDS011;72290;48.808;9.222;2024-02-04T15:47:22;1.00;;;0.90;;
466;SDS011;72290;48.808;9.222;2024-02-04T15:49:49;1.13;;;0.90;;
466;SDS011;72290;48.808;9.222;2024-02-04T15:52:15;1.67;;;0.90;;
466;SDS011;72290;48.808;9.222;2024-02-04T15:54:41;2.70;;;1.07;;
466;SDS011;72290;48.808;9.222;2024-02-04T15:57:08;2.70;;;1.30;;
466;SDS011;72290;48.808;9.222;2024-02-04T16:02:07;1.60;;;1.10;;
466;SDS011;72290;48.808;9.222;2024-02-04T16:04:33;1.20;;;0.93;;
466;SDS011;72290;48.808;9.222;2024-02-04T16:06:59;1.00;;;0.90;;
466;SDS011;72290;48.808;9.222;2024-02-04T16:09:28;3.30;;;1.23;;
466;SDS011;72290;48.808;9.222;2024-02-04T16:14:34;1.30;;;1.10;;
466;SDS011;72290;48.808;9.222;2024-02-04T16:17:12;1.40;;;1.40;;
466;SDS011;72290;48.808;9.222;2024-02-04T16:19:38;1.43;;;1.03;;
466;SDS011;72290;48.808;9.222;2024-02-04T16:22:04;2.20;;;1.30;;
466;SDS011;72290;48.808;9.222;2024-02-04T16:24:30;2.23;;;1.77;;
466;SDS011;72290;48.808;9.222;2024-02-04T16:26:57;1.53;;;1.50;;
466;SDS011;72290;48.808;9.222;2024-02-04T16:29:26;1.90;;;1.63;;
466;SDS011;72290;48.808;9.222;2024-02-04T16:31:54;1.63;;;1.47;;
466;SDS011;72290;48.808;9.222;2024-02-04T16:34:21;1.43;;;1.27;;
466;SDS011;72290;48.808;9.222;2024-02-04T16:36:47;1.50;;;1.10;;
466;SDS011;72290;48.808;9.222;2024-02-04T16:39:13;2.40;;;1.70;;
466;SDS011;72290;48.808;9.222;2024-02-04T16:41:40;4.10;;;2.17;;
466;SDS011;72290;48.808;9.222;2024-02-04T16:44:06;20.90;;;6.13;;
466;SDS011;72290;48.808;9.222;2024-02-04T16:46:32;6.10;;;2.70;;
466;SDS011;72290;48.808;9.222;2024-02-04T16:48:58;1.97;;;1.50;;
466;SDS011;72290;48.808;9.222;2024-02-04T16:51:25;4.63;;;1.43;;
466;SDS011;72290;48.808;9.222;2024-02-04T16:53:51;2.17;;;1.50;;
466;SDS011;72290;48.808;9.222;2024-02-04T16:56:18;4.60;;;2.07;;
466;SDS011;72290;48.808;9.222;2024-02-04T16:58:44;4.20;;;1.77;;
466;SDS011;72290;48.808;9.222;2024-02-04T17:01:10;1.87;;;1.30;;
466;SDS011;72290;48.808;9.222;2024-02-04T17:03:36;1.97;;;1.27;;
466;SDS011;72290;48.808;9.222;2024-02-04T17:06:02;4.00;;;2.37;;
466;SDS011;72290;48.808;9.222;2024-02-04T17:08:28;3.90;;;2.73;;
466;SDS011;72290;48.808;9.222;2024-02-04T17:10:54;4.00;;;2.47;;
466;SDS011;72290;48.808;9.222;2024-02-04T17:13:20;3.87;;;2.17;;
466;SDS011;72290;48.808;9.222;2024-02-04T17:15:47;3.23;;;2.07;;
466;SDS011;72290;48.808;9.222;2024-02-04T17:18:15;2.00;;;1.30;;
466;SDS011;72290;48.808;9.222;2024-02-04T17:20:47;4.20;;;2.40;;
466;SDS011;72290;48.808;9.222;2024-02-04T17:23:15;1.60;;;1.30;;
466;SDS011;72290;48.808;9.222;2024-02-04T17:25:42;3.97;;;2.20;;
466;SDS011;72290;48.808;9.222;2024-02-04T17:28:09;3.37;;;2.37;;
466;SDS011;72290;48.808;9.222;2024-02-04T17:30:35;3.13;;;2.07;;
466;SDS011;72290;48.808;9.222;2024-02-04T17:33:01;9.23;;;2.63;;
466;SDS011;72290;48.808;9.222;2024-02-04T17:35:29;5.67;;;2.60;;
466;SDS011;72290;48.808;9.222;2024-02-04T17:37:55;3.27;;;2.10;;
466;SDS011;72290;48.808;9.222;2024-02-04T17:40:22;9.87;;;4.27;;
466;SDS011;72290;48.808;9.222;2024-02-04T17:42:48;3.67;;;2.20;;
466;SDS011;72290;48.808;9.222;2024-02-04T17:45:14;10.90;;;5.40;;
466;SDS011;72290;48.808;9.222;2024-02-04T17:47:40;8.77;;;4.30;;
466;SDS011;72290;48.808;9.222;2024-02-04T17:50:06;8.63;;;4.17;;
466;SDS011;72290;48.808;9.222;2024-02-04T17:52:32;6.10;;;2.90;;
466;SDS011;72290;48.808;9.222;2024-02-04T17:54:59;9.73;;;5.00;;
466;SDS011;72290;48.808;9.222;2024-02-04T17:57:25;16.30;;;6.67;;
466;SDS011;72290;48.808;9.222;2024-02-04T17:59:51;9.83;;;5.07;;
466;SDS011;72290;48.808;9.222;2024-02-04T18:02:18;12.10;;;6.00;;
466;SDS011;72290;48.808;9.222;2024-02-04T18:04:44;15.47;;;7.30;;
466;SDS011;72290;48.808;9.222;2024-02-04T18:07:11;5.93;;;3.20;;
466;SDS011;72290;48.808;9.222;2024-02-04T18:09:37;4.47;;;2.20;;
466;SDS011;72290;48.808;9.222;2024-02-04T18:12:06;6.47;;;3.37;;
466;SDS011;72290;48.808;9.222;2024-02-04T18:14:32;7.30;;;4.00;;
466;SDS011;72290;48.808;9.222;2024-02-04T18:16:58;7.43;;;4.10;;
466;SDS011;72290;48.808;9.222;2024-02-04T18:19:31;10.70;;;5.93;;
466;SDS011;72290;48.808;9.222;2024-02-04T18:21:57;11.40;;;5.27;;
466;SDS011;72290;48.808;9.222;2024-02-04T18:24:23;9.50;;;4.70;;
466;SDS011;72290;48.808;9.222;2024-02-04T18:26:49;5.37;;;3.00;;
466;SDS011;72290;48.808;9.222;2024-02-04T18:29:16;6.27;;;4.10;;
466;SDS011;72290;48.808;9.222;2024-02-04T18:31:42;5.33;;;3.17;;
466;SDS011;72290;48.808;9.222;2024-02-04T18:34:10;7.13;;;4.10;;
466;SDS011;72290;48.808;9.222;2024-02-04T18:36:40;18.83;;;5.13;;
466;SDS011;72290;48.808;9.222;2024-02-04T18:39:06;6.10;;;4.50;;
466;SDS011;72290;48.808;9.222;2024-02-04T18:41:32;4.40;;;2.40;;
466;SDS011;72290;48.808;9.222;2024-02-04T18:44:05;3.20;;;2.00;;
466;SDS011;72290;48.808;9.222;2024-02-04T18:46:31;2.53;;;2.33;;
466;SDS011;72290;48.808;9.222;2024-02-04T18:48:57;2.50;;;2.10;;
466;SDS011;72290;48.808;9.222;2024-02-04T18:51:23;1.93;;;1.83;;
466;SDS011;72290;48.808;9.222;2024-02-04T18:53:50;6.17;;;2.43;;
466;SDS011;72290;48.808;9.222;2024-02-04T18:56:16;1.53;;;1.40;;
466;SDS011;72290;48.808;9.222;2024-02-04T18:58:42;2.37;;;1.67;;
466;SDS011;72290;48.808;9.222;2024-02-04T19:01:11;1.93;;;1.80;;
466;SDS011;72290;48.808;9.222;2024-02-04T19:03:38;1.87;;;1.80;;
466;SDS011;72290;48.808;9.222;2024-02-04T19:06:05;2.83;;;1.80;;
466;SDS011;72290;48.808;9.222;2024-02-04T19:08:33;2.77;;;1.63;;
466;SDS011;72290;48.808;9.222;2024-02-04T19:11:01;1.70;;;1.63;;
466;SDS011;72290;48.808;9.222;2024-02-04T19:13:27;1.90;;;1.83;;
466;SDS011;72290;48.808;9.222;2024-02-04T19:15:52;1.83;;;1.63;;
466;SDS011;72290;48.808;9.222;2024-02-04T19:18:18;3.70;;;2.20;;
466;SDS011;72290;48.808;9.222;2024-02-04T19:20:44;1.57;;;1.50;;
466;SDS011;72290;48.808;9.222;2024-02-04T19:23:10;2.83;;;2.10;;
466;SDS011;72290;48.808;9.222;2024-02-04T19:25:36;2.30;;;1.87;;
466;SDS011;72290;48.808;9.222;2024-02-04T19:28:02;4.33;;;2.03;;
466;SDS011;72290;48.808;9.222;2024-02-04T19:30:29;3.30;;;2.20;;
466;SDS011;72290;48.808;9.222;2024-02-04T19:32:56;2.37;;;1.90;;
466;SDS011;72290;48.808;9.222;2024-02-04T19:35:25;3.30;;;2.30;;
466;SDS011;72290;48.808;9.222;2024-02-04T19:37:52;2.40;;;2.20;;
466;SDS011;72290;48.808;9.222;2024-02-04T19:40:18;4.00;;;2.03;;
466;SDS011;72290;48.808;9.222;2024-02-04T19:42:45;1.80;;;1.77;;
466;SDS011;72290;48.808;9.222;2024-02-04T19:45:11;3.10;;;2.13;;
466;SDS011;72290;48.808;9.222;2024-02-04T19:47:38;2.40;;;1.83;;
466;SDS011;72290;48.808;9.222;2024-02-04T19:50:04;2.97;;;1.80;;
466;SDS011;72290;48.808;9.222;2024-02-04T19:52:30;1.97;;;1.87;;
466;SDS011;72290;48.808;9.222;2024-02-04T19:54:56;3.53;;;2.37;;
466;SDS011;72290;48.808;9.222;2024-02-04T19:57:22;2.80;;;2.30;;
466;SDS011;72290;48.808;9.222;2024-02-04T19:59:48;1.93;;;1.57;;
466;SDS011;72290;48.808;9.222;2024-02-04T20:02:14;3.13;;;1.97;;
466;SDS011;72290;48.808;9.222;2024-02-04T20:04:40;1.43;;;1.33;;
466;SDS011;72290;48.808;9.222;2024-02-04T20:07:06;3.43;;;2.10;;
466;SDS011;72290;48.808;9.222;2024-02-04T20:09:33;2.63;;;1.83;;
466;SDS011;72290;48.808;9.222;2024-02-04T20:11:59;3.40;;;1.80;;
466;SDS011;72290;48.808;9.222;2024-02-04T20:14:25;1.77;;;1.50;;
466;SDS011;72290;48.808;9.222;2024-02-04T20:16:52;3.00;;;1.67;;
466;SDS011;72290;48.808;9.222;2024-02-04T20:19:17;1.80;;;1.70;;
466;SDS011;72290;48.808;9.222;2024-02-04T20:21:44;2.77;;;2.00;;
466;SDS011;72290;48.808;9.222;2024-02-04T20:24:10;2.50;;;1.60;;
466;SDS011;72290;48.808;9.222;2024-02-04T20:26:36;2.33;;;1.80;;
466;SDS011;72290;48.808;9.222;2024-02-04T20:29:02;3.07;;;2.10;;
466;SDS011;72290;48.808;9.222;2024-02-04T20:31:28;1.50;;;1.40;;
466;SDS011;72290;48.808;9.222;2024-02-04T20:33:54;1.60;;;1.50;;
466;SDS011;72290;48.808;9.222;2024-02-04T20:36:21;4.30;;;1.80;;
466;SDS011;72290;48.808;9.222;2024-02-04T20:38:47;3.60;;;2.10;;
466;SDS011;72290;48.808;9.222;2024-02-04T20:41:13;1.77;;;1.67;;
466;SDS011;72290;48.808;9.222;2024-02-04T20:43:39;3.47;;;2.13;;
466;SDS011;72290;48.808;9.222;2024-02-04T20:46:05;2.30;;;1.90;;
466;SDS011;72290;48.808;9.222;2024-02-04T20:48:34;4.40;;;2.60;;
466;SDS011;72290;48.808;9.222;2024-02-04T20:51:00;5.03;;;2.93;;
466;SDS011;72290;48.808;9.222;2024-02-04T20:53:27;2.03;;;1.80;;
466;SDS011;72290;48.808;9.222;2024-02-04T20:55:53;1.97;;;1.90;;
466;SDS011;72290;48.808;9.222;2024-02-04T20:58:19;3.50;;;1.90;;
466;SDS011;72290;48.808;9.222;2024-02-04T21:00:45;6.00;;;2.83;;
466;SDS011;72290;48.808;9.222;2024-02-04T21:03:11;5.83;;;3.07;;
466;SDS011;72290;48.808;9.222;2024-02-04T21:05:37;4.90;;;2.30;;
466;SDS011;72290;48.808;9.222;2024-02-04T21:08:05;2.60;;;2.40;;
466;SDS011;72290;48.808;9.222;2024-02-04T21:10:31;2.77;;;2.30;;
466;SDS011;72290;48.808;9.222;2024-02-04T21:12:59;5.47;;;2.60;;
466;SDS011;72290;48.808;9.222;2024-02-04T21:15:27;5.27;;;2.50;;
466;SDS011;72290;48.808;9.222;2024-02-04T21:17:53;2.70;;;2.10;;
466;SDS011;72290;48.808;9.222;2024-02-04T21:20:19;3.47;;;2.40;;
466;SDS011;72290;48.808;9.222;2024-02-04T21:22:45;5.13;;;2.70;;
466;SDS011;72290;48.808;9.222;2024-02-04T21:25:12;2.97;;;2.30;;
466;SDS011;72290;48.808;9.222;2024-02-04T21:27:38;3.97;;;2.30;;